createdAt,value
2019-05-19T00:00:48.584Z,29.40
2019-05-19T00:03:17.262Z,29.50
2019-05-19T00:05:46.086Z,29.40
2019-05-19T00:08:14.848Z,29.40
2019-05-19T00:10:43.652Z,29.60
2019-05-19T00:13:12.401Z,29.70
2019-05-19T00:15:41.137Z,29.80
2019-05-19T00:18:09.886Z,29.90
2019-05-19T00:20:38.671Z,29.90
2019-05-19T00:23:07.374Z,29.80
2019-05-19T00:25:36.191Z,30.00
2019-05-19T00:28:04.949Z,30.00
2019-05-19T00:30:33.694Z,30.00
2019-05-19T00:33:02.525Z,30.00
2019-05-19T00:35:31.357Z,30.00
2019-05-19T00:38:00.214Z,30.80
2019-05-19T00:40:28.973Z,30.20
2019-05-19T00:42:57.774Z,30.30
2019-05-19T00:45:26.532Z,30.30
2019-05-19T00:47:55.340Z,30.40
2019-05-19T00:50:24.093Z,30.60
2019-05-19T00:52:52.899Z,30.60
2019-05-19T00:55:21.740Z,30.90
2019-05-19T00:57:51.167Z,31.10
2019-05-19T01:00:19.858Z,31.00
2019-05-19T01:02:48.646Z,31.40
2019-05-19T01:05:20.198Z,31.00
2019-05-19T01:07:47.766Z,31.30
2019-05-19T01:10:16.509Z,31.40
2019-05-19T01:12:45.249Z,31.60
2019-05-19T01:15:14.398Z,31.70
2019-05-19T01:17:43.142Z,31.80
2019-05-19T01:20:12.070Z,32.10
2019-05-19T01:22:40.900Z,32.10
2019-05-19T01:25:09.946Z,32.10
2019-05-19T01:27:38.741Z,32.60
2019-05-19T01:30:11.233Z,32.60
2019-05-19T01:32:39.976Z,32.60
2019-05-19T01:35:08.822Z,32.60
2019-05-19T01:37:37.561Z,32.60
2019-05-19T01:40:08.330Z,32.50
2019-05-19T01:42:37.235Z,32.50
2019-05-19T01:45:10.131Z,32.50
2019-05-19T01:47:38.950Z,32.50
2019-05-19T01:50:17.437Z,33.00
2019-05-19T01:52:39.657Z,33.10
2019-05-19T01:55:08.554Z,33.40
2019-05-19T01:57:37.321Z,33.40
2019-05-19T02:00:07.650Z,33.70
2019-05-19T02:02:36.374Z,33.40
2019-05-19T02:05:06.594Z,33.70
2019-05-19T02:07:35.475Z,33.80
2019-05-19T02:10:06.859Z,33.90
2019-05-19T02:12:35.607Z,34.20
2019-05-19T02:15:06.420Z,34.30
2019-05-19T02:17:35.158Z,34.50
2019-05-19T02:20:05.649Z,34.80
2019-05-19T02:22:34.458Z,34.70
2019-05-19T02:25:03.472Z,34.80
2019-05-19T02:27:32.149Z,34.90
2019-05-19T02:30:00.962Z,34.80
2019-05-19T02:32:29.629Z,34.80
2019-05-19T02:34:58.459Z,35.10
2019-05-19T02:37:27.204Z,35.20
2019-05-19T02:39:56.049Z,35.30
2019-05-19T02:42:28.306Z,35.20
2019-05-19T02:44:59.178Z,35.30
2019-05-19T02:47:28.392Z,35.60
2019-05-19T02:49:58.314Z,35.50
2019-05-19T02:52:28.143Z,35.50
2019-05-19T02:54:57.165Z,35.70
2019-05-19T02:57:26.105Z,35.80
2019-05-19T02:59:55.316Z,35.70
2019-05-19T03:02:24.036Z,35.80
2019-05-19T03:04:52.850Z,35.90
2019-05-19T03:07:21.595Z,35.90
2019-05-19T03:09:50.365Z,36.00
2019-05-19T03:12:19.178Z,35.90
2019-05-19T03:14:47.896Z,36.00
2019-05-19T03:17:16.758Z,36.00
2019-05-19T03:19:45.426Z,35.90
2019-05-19T03:22:14.162Z,36.00
2019-05-19T03:24:42.852Z,35.90
2019-05-19T03:27:11.675Z,36.00
2019-05-19T03:29:41.994Z,36.20
2019-05-19T03:32:13.158Z,36.10
2019-05-19T03:34:42.219Z,36.30
2019-05-19T03:37:10.967Z,36.00
2019-05-19T03:39:39.730Z,36.30
2019-05-19T03:42:10.597Z,36.20
2019-05-19T03:44:38.857Z,36.20
2019-05-19T03:47:07.631Z,36.40
2019-05-19T03:49:36.275Z,36.10
2019-05-19T03:52:05.130Z,36.30
2019-05-19T03:54:33.806Z,36.30
2019-05-19T03:57:02.560Z,36.40
2019-05-19T03:59:31.230Z,36.40
2019-05-19T04:01:59.978Z,36.20
2019-05-19T04:04:28.726Z,36.00
2019-05-19T04:06:57.492Z,35.90
2019-05-19T04:09:26.592Z,36.00
2019-05-19T04:11:55.325Z,36.10
2019-05-19T04:14:24.078Z,36.00
2019-05-19T04:16:52.831Z,36.00
2019-05-19T04:19:21.562Z,35.80
2019-05-19T04:21:50.312Z,35.70
2019-05-19T04:24:19.064Z,35.70
2019-05-19T04:26:47.804Z,36.00
2019-05-19T04:29:16.476Z,35.50
2019-05-19T04:31:45.168Z,35.50
2019-05-19T04:34:13.891Z,35.40
2019-05-19T04:36:42.572Z,35.40
2019-05-19T04:39:11.303Z,35.30
2019-05-19T04:41:40.431Z,35.10
2019-05-19T04:44:09.307Z,35.00
2019-05-19T04:46:37.979Z,35.00
2019-05-19T04:49:06.811Z,34.80
2019-05-19T04:51:35.506Z,34.40
2019-05-19T04:54:04.314Z,35.20
2019-05-19T04:56:33.063Z,34.50
2019-05-19T04:59:01.817Z,34.50
2019-05-19T05:01:30.502Z,34.50
2019-05-19T05:03:59.252Z,34.50
2019-05-19T05:06:27.995Z,34.50
2019-05-19T05:08:56.748Z,34.50
2019-05-19T05:11:25.497Z,34.50
2019-05-19T05:13:54.313Z,34.60
2019-05-19T05:16:22.980Z,34.70
2019-05-19T05:18:51.746Z,34.80
2019-05-19T05:21:20.387Z,34.80
2019-05-19T05:23:49.211Z,34.80
2019-05-19T05:26:17.896Z,34.90
2019-05-19T05:28:46.626Z,35.60
2019-05-19T05:31:15.711Z,34.90
2019-05-19T05:33:44.523Z,34.70
2019-05-19T05:36:13.201Z,34.60
2019-05-19T05:38:41.932Z,34.70
2019-05-19T05:41:10.622Z,34.30
2019-05-19T05:43:39.375Z,34.30
2019-05-19T05:46:08.128Z,34.50
2019-05-19T05:48:36.945Z,34.60
2019-05-19T05:51:05.733Z,34.50
2019-05-19T05:53:34.406Z,34.10
2019-05-19T05:56:03.147Z,34.20
2019-05-19T05:58:31.825Z,34.10
2019-05-19T06:01:00.559Z,34.00
2019-05-19T06:03:29.321Z,34.00
2019-05-19T06:05:58.138Z,34.00
2019-05-19T06:08:26.982Z,33.80
2019-05-19T06:10:55.791Z,33.50
2019-05-19T06:13:24.487Z,33.50
2019-05-19T06:15:53.286Z,33.50
2019-05-19T06:18:22.036Z,33.50
2019-05-19T06:20:50.818Z,33.50
2019-05-19T06:23:19.488Z,33.30
2019-05-19T06:25:48.323Z,33.10
2019-05-19T06:28:17.130Z,33.20
2019-05-19T06:30:45.877Z,33.10
2019-05-19T06:33:14.567Z,33.30
2019-05-19T06:35:43.381Z,33.10
2019-05-19T06:38:12.192Z,33.20
2019-05-19T06:40:40.954Z,33.20
2019-05-19T06:43:09.692Z,33.20
2019-05-19T06:45:38.457Z,33.10
2019-05-19T06:48:07.204Z,32.90
2019-05-19T06:50:39.923Z,32.80
2019-05-19T06:53:14.132Z,32.70
2019-05-19T06:55:36.892Z,32.70
2019-05-19T06:58:05.639Z,32.50
2019-05-19T07:00:34.474Z,32.30
2019-05-19T07:03:03.286Z,32.20
2019-05-19T07:05:32.027Z,31.70
2019-05-19T07:08:00.839Z,31.40
2019-05-19T07:10:29.520Z,31.50
2019-05-19T07:12:58.294Z,31.30
2019-05-19T07:15:27.018Z,32.00
2019-05-19T07:17:55.762Z,31.00
2019-05-19T07:20:24.532Z,30.70
2019-05-19T07:22:53.261Z,30.50
2019-05-19T07:25:21.922Z,30.30
2019-05-19T07:27:50.681Z,30.20
2019-05-19T07:30:19.591Z,30.00
2019-05-19T07:32:48.421Z,29.80
2019-05-19T07:35:17.093Z,29.90
2019-05-19T07:37:45.846Z,29.40
2019-05-19T07:40:14.699Z,29.00
2019-05-19T07:42:43.446Z,29.20
2019-05-19T07:45:13.486Z,29.50
2019-05-19T07:47:42.227Z,29.60
2019-05-19T07:50:11.023Z,29.30
2019-05-19T07:52:39.823Z,29.10
2019-05-19T07:55:08.715Z,29.20
2019-05-19T07:57:37.462Z,29.10
2019-05-19T08:00:09.338Z,29.10
2019-05-19T08:02:38.325Z,28.90
2019-05-19T08:05:08.522Z,28.80
2019-05-19T08:07:37.508Z,28.60
2019-05-19T08:10:06.995Z,28.60
2019-05-19T08:12:35.736Z,28.60
2019-05-19T08:15:06.317Z,28.50
2019-05-19T08:17:35.140Z,28.50
2019-05-19T08:20:05.883Z,28.60
2019-05-19T08:22:34.731Z,28.50
2019-05-19T08:25:04.363Z,28.00
2019-05-19T08:27:33.115Z,27.60
2019-05-19T08:30:01.782Z,27.10
2019-05-19T08:32:30.570Z,26.60
2019-05-19T08:34:59.255Z,25.80
2019-05-19T08:37:28.014Z,25.80
2019-05-19T08:39:56.681Z,26.00
2019-05-19T08:42:25.505Z,25.50
2019-05-19T08:44:54.246Z,24.70
2019-05-19T08:47:23.001Z,24.40
2019-05-19T08:49:51.690Z,24.30
2019-05-19T08:52:20.443Z,23.80
2019-05-19T08:54:49.133Z,23.90
2019-05-19T08:57:17.874Z,23.50
2019-05-19T08:59:46.622Z,23.40
2019-05-19T09:02:15.371Z,23.10
2019-05-19T09:04:44.042Z,22.90
2019-05-19T09:07:12.767Z,22.40
2019-05-19T09:09:41.526Z,21.90
2019-05-19T09:12:10.343Z,21.50
2019-05-19T09:14:39.031Z,21.10
2019-05-19T09:17:07.774Z,21.20
2019-05-19T09:19:36.517Z,20.80
2019-05-19T09:22:05.346Z,20.30
2019-05-19T09:24:37.191Z,19.70
2019-05-19T09:27:04.483Z,19.50
2019-05-19T09:29:33.231Z,19.30
2019-05-19T09:32:02.021Z,18.80
2019-05-19T09:34:30.784Z,19.00
2019-05-19T09:36:59.589Z,18.90
2019-05-19T09:39:28.337Z,19.30
2019-05-19T09:41:57.091Z,18.50
2019-05-19T09:44:25.830Z,18.20
2019-05-19T09:46:54.573Z,17.60
2019-05-19T09:49:32.955Z,17.60
2019-05-19T09:52:02.795Z,17.40
2019-05-19T09:54:44.100Z,16.80
2019-05-19T09:57:02.104Z,17.00
2019-05-19T09:59:30.846Z,17.10
2019-05-19T10:01:59.682Z,17.10
2019-05-19T10:04:28.498Z,16.90
2019-05-19T10:06:57.278Z,16.60
2019-05-19T10:09:30.747Z,15.90
2019-05-19T10:12:02.039Z,15.60
2019-05-19T10:14:30.856Z,15.60
2019-05-19T10:16:58.837Z,15.20
2019-05-19T10:19:27.509Z,15.20
2019-05-19T10:21:56.324Z,15.10
2019-05-19T10:24:25.380Z,14.80
2019-05-19T10:26:54.209Z,14.70
2019-05-19T10:29:23.038Z,14.20
2019-05-19T10:31:54.400Z,14.90
2019-05-19T10:34:22.367Z,14.70
2019-05-19T10:36:51.230Z,14.60
2019-05-19T10:39:19.856Z,14.40
2019-05-19T10:41:47.750Z,14.50
2019-05-19T10:44:16.564Z,14.00
2019-05-19T10:46:45.339Z,14.20
2019-05-19T10:49:14.075Z,14.50
2019-05-19T10:51:42.898Z,13.40
2019-05-19T10:54:11.636Z,12.90
2019-05-19T10:56:40.382Z,12.60
2019-05-19T10:59:09.131Z,12.80
2019-05-19T11:01:37.886Z,12.90
2019-05-19T11:04:06.713Z,13.40
2019-05-19T11:06:35.454Z,13.30
2019-05-19T11:09:06.198Z,13.10
2019-05-19T11:11:35.014Z,13.20
2019-05-19T11:14:03.753Z,13.40
2019-05-19T11:16:32.505Z,13.60
2019-05-19T11:19:01.240Z,13.20
2019-05-19T11:21:29.907Z,13.00
2019-05-19T11:23:58.643Z,12.60
2019-05-19T11:26:27.477Z,12.60
2019-05-19T11:28:56.225Z,12.50
2019-05-19T11:31:24.915Z,13.00
2019-05-19T11:33:53.657Z,12.20
2019-05-19T11:36:22.462Z,11.60
2019-05-19T11:38:51.239Z,11.40
2019-05-19T11:41:20.065Z,11.30
2019-05-19T11:43:48.791Z,11.00
2019-05-19T11:46:17.540Z,11.00
2019-05-19T11:48:46.277Z,11.10
2019-05-19T11:51:15.022Z,10.40
2019-05-19T11:53:43.755Z,10.30
2019-05-19T11:56:12.434Z,10.10
2019-05-19T11:58:41.163Z,9.90
2019-05-19T12:01:09.911Z,9.50
2019-05-19T12:03:38.658Z,9.40
2019-05-19T12:06:07.307Z,9.50
2019-05-19T12:08:36.066Z,9.40
2019-05-19T12:11:04.790Z,9.60
2019-05-19T12:13:35.058Z,9.50
2019-05-19T12:16:04.090Z,9.20
2019-05-19T12:18:32.825Z,8.70
2019-05-19T12:21:01.587Z,8.70
2019-05-19T12:23:30.402Z,8.90
2019-05-19T12:25:59.127Z,8.70
2019-05-19T12:28:28.131Z,8.30
2019-05-19T12:30:56.878Z,8.40
2019-05-19T12:33:25.701Z,8.70
2019-05-19T12:35:54.443Z,8.40
2019-05-19T12:38:23.103Z,8.30
2019-05-19T12:40:51.839Z,8.20
2019-05-19T12:43:20.657Z,8.20
2019-05-19T12:45:49.507Z,8.00
2019-05-19T12:48:18.330Z,7.80
2019-05-19T12:50:47.068Z,8.20
2019-05-19T12:53:15.741Z,8.00
2019-05-19T12:55:44.482Z,8.10
2019-05-19T12:58:13.166Z,7.80
2019-05-19T13:00:41.913Z,7.60
2019-05-19T13:03:10.680Z,7.60
2019-05-19T13:05:39.432Z,7.40
2019-05-19T13:08:11.371Z,7.40
2019-05-19T13:10:38.654Z,7.60
2019-05-19T13:13:08.188Z,7.50
2019-05-19T13:15:37.006Z,7.40
2019-05-19T13:18:05.753Z,7.10
2019-05-19T13:20:34.507Z,7.30
2019-05-19T13:23:03.170Z,7.20
2019-05-19T13:25:31.913Z,7.50
2019-05-19T13:28:00.598Z,7.60
2019-05-19T13:30:29.405Z,7.80
2019-05-19T13:32:58.222Z,7.80
2019-05-19T13:35:27.030Z,7.90
2019-05-19T13:37:55.708Z,7.90
2019-05-19T13:40:24.530Z,7.80
2019-05-19T13:42:53.253Z,7.60
2019-05-19T13:45:22.219Z,7.80
2019-05-19T13:47:51.022Z,7.60
2019-05-19T13:50:20.264Z,7.90
2019-05-19T13:52:51.202Z,7.60
2019-05-19T13:55:19.418Z,7.20
2019-05-19T13:57:48.199Z,6.90
2019-05-19T14:00:17.926Z,6.80
2019-05-19T14:02:46.754Z,6.80
2019-05-19T14:05:15.601Z,6.60
2019-05-19T14:07:44.331Z,6.40
2019-05-19T14:10:13.966Z,6.40
2019-05-19T14:12:42.706Z,6.60
2019-05-19T14:15:11.517Z,6.60
2019-05-19T14:17:40.270Z,6.70
2019-05-19T14:20:09.286Z,6.20
2019-05-19T14:22:38.074Z,6.10
2019-05-19T14:25:06.924Z,6.00
2019-05-19T14:27:35.740Z,5.60
2019-05-19T14:30:06.280Z,5.10
2019-05-19T14:32:35.020Z,5.50
2019-05-19T14:35:04.751Z,5.90
2019-05-19T14:37:33.505Z,5.40
2019-05-19T14:40:02.402Z,5.20
2019-05-19T14:42:49.015Z,5.60
2019-05-19T14:45:17.846Z,5.80
2019-05-19T14:47:46.592Z,5.70
2019-05-19T14:50:15.337Z,5.30
2019-05-19T14:52:44.085Z,5.50
2019-05-19T14:55:12.920Z,4.90
2019-05-19T14:57:45.300Z,5.00
2019-05-19T15:00:13.886Z,4.70
2019-05-19T15:02:42.694Z,4.90
2019-05-19T15:05:11.815Z,5.00
2019-05-19T15:07:40.550Z,5.10
2019-05-19T15:10:09.866Z,5.30
2019-05-19T15:12:38.584Z,5.00
2019-05-19T15:15:10.632Z,4.50
2019-05-19T15:17:39.308Z,5.00
2019-05-19T15:20:10.229Z,4.90
2019-05-19T15:22:39.001Z,4.90
2019-05-19T15:25:08.413Z,4.90
2019-05-19T15:27:37.339Z,4.70
2019-05-19T15:30:12.867Z,4.80
2019-05-19T15:32:38.362Z,5.40
2019-05-19T15:35:07.168Z,6.40
2019-05-19T15:37:35.917Z,6.60
2019-05-19T15:40:10.141Z,7.20
2019-05-19T15:42:38.908Z,7.50
2019-05-19T15:45:09.108Z,8.30
2019-05-19T15:47:37.838Z,8.00
2019-05-19T15:50:07.954Z,8.90
2019-05-19T15:52:36.698Z,9.40
2019-05-19T15:55:06.417Z,9.90
2019-05-19T15:57:35.364Z,10.50
2019-05-19T16:00:06.278Z,11.00
2019-05-19T16:02:35.096Z,11.30
2019-05-19T16:05:04.992Z,11.60
2019-05-19T16:07:33.827Z,11.90
2019-05-19T16:10:02.996Z,12.00
2019-05-19T16:12:31.912Z,12.00
2019-05-19T16:15:00.664Z,10.90
2019-05-19T16:17:29.431Z,10.20
2019-05-19T16:19:58.175Z,9.50
2019-05-19T16:22:26.839Z,9.00
2019-05-19T16:24:55.527Z,9.10
2019-05-19T16:27:24.350Z,8.80
2019-05-19T16:29:53.022Z,8.30
2019-05-19T16:32:21.757Z,7.90
2019-05-19T16:34:50.529Z,7.50
2019-05-19T16:37:19.329Z,7.20
2019-05-19T16:39:48.017Z,7.20
2019-05-19T16:42:16.819Z,7.20
2019-05-19T16:44:45.497Z,7.10
2019-05-19T16:47:14.314Z,7.20
2019-05-19T16:49:43.015Z,7.20
2019-05-19T16:52:11.833Z,7.10
2019-05-19T16:54:42.715Z,7.10
2019-05-19T16:57:11.643Z,7.10
2019-05-19T16:59:40.374Z,7.10
2019-05-19T17:02:09.191Z,7.20
2019-05-19T17:04:37.933Z,7.10
2019-05-19T17:07:06.687Z,7.20
2019-05-19T17:09:35.417Z,7.50
2019-05-19T17:12:06.783Z,7.80
2019-05-19T17:14:34.644Z,8.00
2019-05-19T17:17:03.383Z,8.10
2019-05-19T17:19:32.073Z,8.40
2019-05-19T17:22:00.803Z,8.50
2019-05-19T17:24:29.474Z,9.20
2019-05-19T17:26:58.294Z,9.00
2019-05-19T17:29:26.969Z,8.80
2019-05-19T17:32:05.657Z,9.20
2019-05-19T17:34:26.099Z,9.80
2019-05-19T17:36:54.842Z,10.20
2019-05-19T17:39:23.602Z,10.80
2019-05-19T17:41:52.349Z,11.00
2019-05-19T17:44:21.167Z,11.00
2019-05-19T17:46:49.998Z,11.10
2019-05-19T17:49:18.810Z,11.50
2019-05-19T17:51:49.263Z,11.90
2019-05-19T17:54:20.169Z,12.50
2019-05-19T17:56:49.883Z,13.30
2019-05-19T17:59:18.794Z,13.90
2019-05-19T18:01:47.635Z,14.30
2019-05-19T18:04:16.505Z,14.90
2019-05-19T18:06:45.335Z,15.20
2019-05-19T18:09:14.227Z,15.60
2019-05-19T18:11:43.099Z,16.20
2019-05-19T18:14:11.925Z,16.40
2019-05-19T18:16:40.626Z,16.70
2019-05-19T18:19:09.362Z,16.60
2019-05-19T18:21:39.299Z,16.70
2019-05-19T18:24:08.127Z,17.30
2019-05-19T18:26:36.881Z,17.50
2019-05-19T18:29:05.724Z,18.00
2019-05-19T18:31:34.481Z,18.30
2019-05-19T18:34:03.315Z,18.10
2019-05-19T18:36:32.082Z,18.50
2019-05-19T18:39:00.845Z,18.80
2019-05-19T18:41:29.259Z,19.00
2019-05-19T18:43:58.148Z,19.70
2019-05-19T18:46:26.225Z,19.50
2019-05-19T18:48:56.038Z,20.20
2019-05-19T18:51:24.826Z,20.10
2019-05-19T18:53:55.663Z,20.30
2019-05-19T18:56:24.413Z,20.70
2019-05-19T18:58:52.590Z,20.40
2019-05-19T19:01:20.509Z,20.90
2019-05-19T19:03:48.970Z,21.20
2019-05-19T19:06:16.839Z,21.40
2019-05-19T19:08:45.047Z,21.80
2019-05-19T19:11:12.930Z,21.90
2019-05-19T19:13:40.865Z,22.00
2019-05-19T19:16:08.892Z,22.10
2019-05-19T19:18:36.752Z,22.30
2019-05-19T19:21:04.718Z,22.60
2019-05-19T19:23:32.685Z,22.70
2019-05-19T19:26:00.619Z,22.90
2019-05-19T19:28:28.525Z,23.20
2019-05-19T19:30:56.519Z,23.30
2019-05-19T19:33:24.444Z,23.30
2019-05-19T19:35:52.830Z,23.70
2019-05-19T19:38:21.461Z,23.80
2019-05-19T19:40:49.361Z,24.10
2019-05-19T19:43:17.314Z,24.50
2019-05-19T19:45:45.254Z,25.00
2019-05-19T19:48:13.171Z,25.00
2019-05-19T19:50:41.102Z,25.50
2019-05-19T19:53:11.241Z,25.80
2019-05-19T19:55:39.139Z,25.90
2019-05-19T19:58:07.120Z,25.70
2019-05-19T20:00:36.542Z,25.80
2019-05-19T20:03:07.858Z,26.20
2019-05-19T20:05:35.808Z,26.30
2019-05-19T20:08:04.011Z,26.70
2019-05-19T20:10:31.908Z,27.10
2019-05-19T20:12:59.812Z,26.70
2019-05-19T20:15:27.775Z,27.10
2019-05-19T20:17:55.757Z,27.30
2019-05-19T20:20:24.251Z,27.40
2019-05-19T20:22:52.302Z,27.40
2019-05-19T20:25:20.235Z,27.90
2019-05-19T20:27:48.141Z,27.70
2019-05-19T20:30:16.194Z,28.00
2019-05-19T20:32:44.057Z,28.00
2019-05-19T20:35:12.019Z,28.20
2019-05-19T20:37:40.004Z,28.40
2019-05-19T20:40:09.447Z,28.20
2019-05-19T20:42:37.454Z,28.70
2019-05-19T20:45:05.474Z,28.50
2019-05-19T20:47:33.402Z,28.50
2019-05-19T20:50:01.338Z,28.80
2019-05-19T20:52:29.248Z,28.70
2019-05-19T20:54:57.150Z,28.80
2019-05-19T20:57:25.083Z,28.90
2019-05-19T20:59:52.997Z,28.60
2019-05-19T21:02:20.884Z,29.00
2019-05-19T21:04:48.863Z,29.00
2019-05-19T21:07:16.745Z,29.30
2019-05-19T21:09:44.718Z,29.20
2019-05-19T21:12:12.675Z,29.10
2019-05-19T21:14:40.584Z,29.20
2019-05-19T21:17:08.493Z,29.30
2019-05-19T21:19:36.393Z,29.20
2019-05-19T21:22:04.303Z,29.40
2019-05-19T21:24:32.185Z,29.60
2019-05-19T21:27:00.151Z,29.60
2019-05-19T21:29:28.113Z,29.70
2019-05-19T21:31:56.089Z,29.80
2019-05-19T21:34:24.064Z,29.90
2019-05-19T21:36:52.147Z,30.00
2019-05-19T21:39:20.011Z,30.00
2019-05-19T21:41:47.851Z,29.90
2019-05-19T21:44:15.842Z,30.10
2019-05-19T21:46:43.820Z,30.00
2019-05-19T21:49:11.705Z,30.10
2019-05-19T21:51:39.674Z,30.40
2019-05-19T21:54:07.596Z,30.30
2019-05-19T21:56:35.505Z,30.60
2019-05-19T21:59:03.438Z,30.60
2019-05-19T22:01:31.407Z,30.80
2019-05-19T22:03:59.294Z,30.70
2019-05-19T22:06:28.763Z,30.60
2019-05-19T22:08:56.742Z,31.00
2019-05-19T22:11:24.713Z,31.10
2019-05-19T22:13:52.618Z,31.00
2019-05-19T22:16:20.522Z,31.40
2019-05-19T22:18:48.443Z,31.40
2019-05-19T22:21:16.282Z,31.50
2019-05-19T22:23:44.259Z,31.70
2019-05-19T22:26:12.171Z,31.80
2019-05-19T22:28:40.137Z,31.80
2019-05-19T22:31:08.115Z,32.00
2019-05-19T22:33:36.019Z,32.00
2019-05-19T22:36:03.943Z,32.00
2019-05-19T22:38:31.867Z,32.20
2019-05-19T22:40:59.811Z,32.10
2019-05-19T22:43:27.785Z,32.50
2019-05-19T22:45:55.675Z,32.50
2019-05-19T22:48:23.587Z,32.60
2019-05-19T22:50:51.480Z,32.70
2019-05-19T22:53:19.442Z,32.80
2019-05-19T22:55:47.421Z,32.80
2019-05-19T22:58:15.333Z,33.00
2019-05-19T23:00:43.393Z,32.90
2019-05-19T23:03:11.320Z,33.30
2019-05-19T23:05:39.206Z,33.40
2019-05-19T23:08:07.114Z,33.30
2019-05-19T23:10:35.014Z,33.30
2019-05-19T23:13:02.911Z,33.30
2019-05-19T23:15:30.891Z,33.30
2019-05-19T23:17:58.860Z,33.60
2019-05-19T23:20:26.838Z,33.80
2019-05-19T23:22:54.760Z,33.70
2019-05-19T23:25:22.669Z,33.80
2019-05-19T23:27:50.671Z,34.00
2019-05-19T23:30:18.675Z,33.90
2019-05-19T23:32:46.630Z,33.80
2019-05-19T23:35:14.540Z,34.10
2019-05-19T23:37:42.532Z,34.00
2019-05-19T23:40:10.594Z,34.10
2019-05-19T23:42:38.509Z,34.50
2019-05-19T23:45:06.414Z,34.50
2019-05-19T23:47:34.318Z,35.00
2019-05-19T23:50:02.316Z,34.60
2019-05-19T23:52:30.307Z,35.10
2019-05-19T23:54:58.287Z,35.00
2019-05-19T23:57:26.185Z,35.00
2019-05-19T23:59:54.146Z,35.00
